Time;durP1;ratioP1;P1;durP2;ratioP2;P2;SDS_P1;SDS_P2;PMS_P1;PMS_P2;Temp;Humidity;BMP_temperature;BMP_pressure;BME280_temperature;BME280_humidity;BME280_pressure;Samples;Min_cycle;Max_cycle;Signal;HPM_P1;HPM_P2
2021/12/30 00:01:17;;;;;;;0.70;0.70;;;13.80;91.90;13.10;98040.00;;;;5096283;28;20267;-77
2021/12/30 00:03:45;;;;;;;0.60;0.60;;;13.80;91.70;13.10;98017.00;;;;5096326;28;20190;-78
2021/12/30 00:06:17;;;;;;;0.40;0.40;;;13.70;91.90;13.20;98048.00;;;;5096215;28;20249;-77
2021/12/30 00:08:47;;;;;;;0.57;0.57;;;13.80;91.60;13.10;98035.00;;;;5096254;28;20191;-81
2021/12/30 00:11:17;;;;;;;0.50;0.50;;;13.70;91.30;13.00;98060.00;;;;5096047;28;20316;-83
2021/12/30 00:13:45;;;;;;;0.57;0.57;;;13.60;90.80;13.00;98059.00;;;;5096196;28;20206;-81
2021/12/30 00:16:16;;;;;;;0.63;0.63;;;13.60;91.60;13.10;98066.00;;;;5096163;28;20324;-83
2021/12/30 00:18:44;;;;;;;0.70;0.70;;;13.70;91.40;13.10;98071.00;;;;5096373;28;20198;-82
2021/12/30 00:21:10;;;;;;;0.70;0.70;;;13.70;91.10;13.10;98069.00;;;;5095932;28;20256;-79
2021/12/30 00:23:39;;;;;;;0.50;0.50;;;13.70;90.60;13.10;98093.00;;;;5096316;28;20205;-83
2021/12/30 00:26:06;;;;;;;0.60;0.60;;;13.70;90.10;13.10;98095.00;;;;5096019;28;20230;-80
2021/12/30 00:28:35;;;;;;;0.50;0.50;;;13.80;90.00;13.10;98108.00;;;;5095907;28;20201;-81
2021/12/30 00:31:03;;;;;;;0.50;0.50;;;13.70;90.20;13.10;98115.00;;;;5095876;28;20312;-78
2021/12/30 00:33:32;;;;;;;0.40;0.40;;;13.70;90.70;13.00;98109.00;;;;5095951;28;20313;-79
2021/12/30 00:35:59;;;;;;;0.50;0.50;;;13.60;90.80;13.10;98116.00;;;;5095980;28;20283;-80
2021/12/30 00:38:26;;;;;;;0.50;0.50;;;13.70;90.70;13.20;98123.00;;;;5095839;28;20230;-81
2021/12/30 00:40:52;;;;;;;0.50;0.50;;;13.70;90.10;13.10;98126.00;;;;5095784;28;20194;-78
2021/12/30 00:43:19;;;;;;;0.70;0.70;;;13.70;90.20;13.10;98133.00;;;;5112860;28;20830;-78
2021/12/30 00:45:47;;;;;;;0.50;0.50;;;13.70;90.60;13.00;98117.00;;;;5095803;28;20198;-78
2021/12/30 00:48:16;;;;;;;0.60;0.60;;;13.60;90.40;13.00;98119.00;;;;5095778;28;20190;-74
2021/12/30 00:50:45;;;;;;;0.50;0.50;;;13.60;90.00;13.00;98124.00;;;;5095788;28;20262;-75
2021/12/30 00:53:12;;;;;;;0.60;0.60;;;13.60;90.10;12.90;98117.00;;;;5095719;28;20197;-74
2021/12/30 00:55:40;;;;;;;0.43;0.43;;;13.50;90.90;13.00;98143.00;;;;5112640;28;20305;-80
2021/12/30 00:58:08;;;;;;;0.40;0.40;;;13.60;90.40;13.00;98142.00;;;;5095466;28;20278;-74
2021/12/30 01:00:37;;;;;;;0.50;0.50;;;13.60;89.80;12.90;98151.00;;;;5095608;28;20213;-73
2021/12/30 01:03:06;;;;;;;0.50;0.50;;;13.50;89.90;12.90;98155.00;;;;5095405;28;20308;-74
2021/12/30 01:05:35;;;;;;;0.60;0.60;;;13.50;89.60;12.90;98147.00;;;;5095493;28;20205;-74
2021/12/30 01:08:03;;;;;;;2.17;1.33;;;13.50;89.50;13.00;98142.00;;;;5097380;28;20222;-74
2021/12/30 01:10:30;;;;;;;0.53;0.53;;;13.60;89.30;12.90;98149.00;;;;5099082;28;20213;-74
2021/12/30 01:13:00;;;;;;;0.40;0.40;;;13.50;89.70;12.90;98130.00;;;;5115832;28;20317;-74
2021/12/30 01:15:34;;;;;;;0.87;0.83;;;13.50;90.00;12.80;98159.00;;;;5098863;28;20206;-74
2021/12/30 01:20:45;;;;;;;0.60;0.60;;;13.50;90.10;12.80;98158.00;;;;5098719;28;20193;-74
2021/12/30 01:23:12;;;;;;;0.53;0.53;;;13.40;90.30;12.80;98159.00;;;;5098669;28;20301;-74
2021/12/30 01:25:38;;;;;;;0.50;0.50;;;13.40;90.60;12.80;98156.00;;;;5098567;28;20235;-74
2021/12/30 01:28:07;;;;;;;0.60;0.60;;;13.40;90.50;12.80;98159.00;;;;5098744;28;20266;-74
2021/12/30 01:30:34;;;;;;;0.50;0.50;;;13.40;90.60;12.80;98171.00;;;;5098745;28;20234;-75
2021/12/30 01:33:00;;;;;;;0.40;0.40;;;13.40;90.80;12.80;98172.00;;;;5098573;28;20335;-74
2021/12/30 01:35:30;;;;;;;0.40;0.40;;;13.40;90.40;12.80;98167.00;;;;5098471;28;20273;-74
2021/12/30 01:38:00;;;;;;;0.80;0.80;;;13.40;90.30;12.80;98142.00;;;;5098667;28;20294;-74
2021/12/30 01:40:28;;;;;;;0.40;0.40;;;13.40;90.20;12.80;98181.00;;;;5098671;28;20601;-74
2021/12/30 01:42:55;;;;;;;0.50;0.50;;;13.50;90.30;12.80;98167.00;;;;5098628;28;20227;-74
2021/12/30 01:45:22;;;;;;;0.50;0.50;;;13.50;89.50;12.90;98192.00;;;;5115575;28;20667;-74
2021/12/30 01:47:53;;;;;;;0.40;0.40;;;13.50;88.80;12.80;98201.00;;;;5098150;28;20347;-74
2021/12/30 01:50:21;;;;;;;0.60;0.60;;;13.50;89.00;12.80;98194.00;;;;5115386;28;20202;-75
2021/12/30 01:52:51;;;;;;;0.50;0.50;;;13.50;89.40;12.90;98209.00;;;;5098335;28;20325;-74
2021/12/30 01:55:21;;;;;;;0.40;0.40;;;13.50;89.20;12.80;98213.00;;;;5098415;28;20197;-74
2021/12/30 01:57:49;;;;;;;0.50;0.50;;;13.50;89.00;12.80;98206.00;;;;5098240;28;20257;-74
2021/12/30 02:00:19;;;;;;;0.50;0.50;;;13.40;88.80;12.80;98232.00;;;;5098235;28;20292;-75
2021/12/30 02:02:49;;;;;;;0.60;0.60;;;13.40;88.20;12.60;98230.00;;;;5098239;28;20245;-74
2021/12/30 02:05:19;;;;;;;0.50;0.50;;;13.40;88.80;12.70;98237.00;;;;5098195;28;20602;-75
2021/12/30 02:07:45;;;;;;;0.50;0.50;;;13.30;89.30;12.70;98247.00;;;;5098069;28;20232;-74
2021/12/30 02:10:14;;;;;;;0.60;0.60;;;13.40;88.80;12.60;98240.00;;;;5098013;28;20507;-75
2021/12/30 02:12:43;;;;;;;0.50;0.50;;;13.40;88.80;12.60;98244.00;;;;5098156;28;20193;-74
2021/12/30 02:15:13;;;;;;;0.60;0.60;;;13.30;89.30;12.70;98257.00;;;;5097829;28;20236;-74
2021/12/30 02:17:40;;;;;;;0.50;0.50;;;13.40;88.90;12.90;98259.00;;;;5097907;28;20771;-74
2021/12/30 02:20:11;;;;;;;0.80;0.80;;;13.50;88.90;12.80;98261.00;;;;5097110;28;20245;-75
2021/12/30 02:22:38;;;;;;;0.50;0.50;;;13.50;88.40;12.80;98269.00;;;;5097868;28;20197;-74
2021/12/30 02:25:06;;;;;;;0.50;0.50;;;13.40;89.60;12.70;98262.00;;;;5097837;28;20210;-75
2021/12/30 02:27:33;;;;;;;0.50;0.50;;;13.40;88.40;12.70;98266.00;;;;5097738;28;20225;-75
2021/12/30 02:30:00;;;;;;;0.47;0.47;;;13.40;89.10;12.80;98268.00;;;;5097774;28;20310;-74
2021/12/30 02:32:26;;;;;;;1.20;1.20;;;13.40;89.50;12.80;98268.00;;;;5097718;28;20359;-75
2021/12/30 02:34:53;;;;;;;0.50;0.50;;;13.40;89.20;12.90;98270.00;;;;5097650;28;20296;-74
2021/12/30 02:37:21;;;;;;;0.30;0.30;;;13.50;88.80;12.80;98268.00;;;;5097359;28;20221;-75
2021/12/30 02:39:52;;;;;;;0.60;0.60;;;13.40;89.10;12.80;98278.00;;;;5097619;28;20198;-74
2021/12/30 02:42:23;;;;;;;0.57;0.57;;;13.40;89.30;12.80;98278.00;;;;5097561;28;20202;-74
2021/12/30 02:44:50;;;;;;;0.50;0.50;;;13.50;89.20;12.90;98275.00;;;;5097629;28;20208;-74
2021/12/30 02:47:17;;;;;;;0.60;0.60;;;13.50;88.90;13.00;98273.00;;;;5114489;28;20202;-74
2021/12/30 02:49:43;;;;;;;0.70;0.70;;;13.60;88.80;12.90;98285.00;;;;5097459;28;20317;-74
2021/12/30 02:52:10;;;;;;;0.50;0.50;;;13.60;90.40;12.90;98284.00;;;;5097413;28;20722;-74
2021/12/30 02:54:40;;;;;;;0.70;0.70;;;13.50;90.00;13.00;98292.00;;;;5097379;28;20226;-74
2021/12/30 02:57:09;;;;;;;0.50;0.50;;;13.60;90.30;12.90;98290.00;;;;5097309;28;20214;-74
2021/12/30 02:59:37;;;;;;;0.50;0.50;;;13.50;90.30;12.80;98292.00;;;;5097021;28;20210;-74
2021/12/30 03:02:04;;;;;;;0.50;0.50;;;13.50;90.50;13.00;98290.00;;;;5097095;28;20194;-74
2021/12/30 03:04:31;;;;;;;0.70;0.70;;;13.60;90.60;12.90;98308.00;;;;5097225;28;20205;-74
2021/12/30 03:06:58;;;;;;;0.50;0.50;;;13.50;90.60;12.90;98283.00;;;;5097176;28;20525;-74
2021/12/30 03:09:27;;;;;;;0.53;0.53;;;13.60;90.20;13.00;98295.00;;;;5097151;28;20217;-73
2021/12/30 03:11:56;;;;;;;0.50;0.50;;;13.60;90.40;13.20;98291.00;;;;5096983;28;20332;-74
2021/12/30 03:14:25;;;;;;;0.50;0.50;;;13.70;90.30;13.10;98292.00;;;;5097060;28;20206;-74
2021/12/30 03:16:53;;;;;;;0.50;0.50;;;13.70;90.00;13.00;98284.00;;;;5096795;28;20278;-74
2021/12/30 03:19:20;;;;;;;0.60;0.60;;;13.60;90.60;13.10;98301.00;;;;5097121;28;20245;-74
2021/12/30 03:21:47;;;;;;;0.70;0.70;;;13.60;90.50;12.90;98296.00;;;;5096907;28;20534;-74
2021/12/30 03:24:14;;;;;;;0.53;0.53;;;13.60;90.80;13.00;98306.00;;;;5096717;28;20288;-74
2021/12/30 03:26:41;;;;;;;0.57;0.57;;;13.60;90.60;12.90;98302.00;;;;5096793;28;20220;-74
2021/12/30 03:29:09;;;;;;;0.50;0.50;;;13.60;90.40;13.00;98303.00;;;;5096760;28;20320;-73
2021/12/30 03:31:36;;;;;;;0.50;0.50;;;13.50;91.00;13.00;98305.00;;;;5096687;28;20222;-74
2021/12/30 03:34:03;;;;;;;0.50;0.50;;;13.60;90.50;13.10;98295.00;;;;5096599;28;20258;-74
2021/12/30 03:36:29;;;;;;;0.63;0.63;;;13.60;90.60;13.00;98314.00;;;;5096779;28;20309;-74
2021/12/30 03:38:57;;;;;;;0.50;0.50;;;13.60;90.30;13.00;98309.00;;;;5096632;28;20198;-74
2021/12/30 03:41:29;;;;;;;0.43;0.43;;;13.60;90.60;13.10;98313.00;;;;5096889;28;20198;-74
2021/12/30 03:44:00;;;;;;;0.40;0.40;;;13.70;90.90;13.10;98305.00;;;;5096660;28;20598;-73
2021/12/30 03:46:28;;;;;;;0.50;0.50;;;13.70;91.30;13.10;98315.00;;;;5096671;28;20640;-74
2021/12/30 03:48:54;;;;;;;0.50;0.50;;;13.70;91.30;13.10;98328.00;;;;5096514;28;20205;-74
2021/12/30 03:51:24;;;;;;;0.53;0.53;;;13.70;91.50;13.10;98330.00;;;;5096283;28;20249;-74
2021/12/30 03:53:55;;;;;;;0.50;0.50;;;13.70;91.70;13.10;98320.00;;;;5096547;28;20280;-74
2021/12/30 03:56:25;;;;;;;0.50;0.50;;;13.70;91.80;13.10;98324.00;;;;5096328;28;20249;-74
2021/12/30 03:58:52;;;;;;;0.50;0.50;;;;;13.10;98325.00;;;;5096399;28;20644;-74
2021/12/30 04:01:22;;;;;;;0.60;0.60;;;13.70;91.20;13.00;98335.00;;;;5096190;28;20205;-73
2021/12/30 04:03:51;;;;;;;0.60;0.60;;;13.60;92.40;13.10;98333.00;;;;5096473;28;20311;-74
2021/12/30 04:06:19;;;;;;;0.47;0.47;;;13.70;91.80;13.10;98335.00;;;;5096364;28;20226;-74
2021/12/30 04:08:48;;;;;;;0.40;0.40;;;13.70;92.00;13.00;98335.00;;;;5096319;28;20628;-74
2021/12/30 04:11:15;;;;;;;0.43;0.43;;;13.70;91.90;13.00;98350.00;;;;5113141;28;20322;-74
2021/12/30 04:13:42;;;;;;;0.50;0.50;;;13.70;92.20;12.90;98352.00;;;;5096255;28;20236;-74
2021/12/30 04:16:08;;;;;;;0.40;0.40;;;13.50;93.40;12.90;98342.00;;;;5113102;28;20591;-74
2021/12/30 04:18:35;;;;;;;0.77;0.77;;;13.50;93.70;12.80;98323.00;;;;5096081;28;20740;-74
2021/12/30 04:21:03;;;;;;;0.50;0.50;;;13.40;94.70;12.80;98358.00;;;;5096126;28;20288;-74
2021/12/30 04:23:29;;;;;;;1.33;1.30;;;13.50;94.80;12.80;98357.00;;;;5095979;28;20216;-74
2021/12/30 04:25:56;;;;;;;0.93;0.93;;;13.50;94.60;12.90;98351.00;;;;5096078;28;20212;-74
2021/12/30 04:28:25;;;;;;;1.90;1.80;;;13.50;95.80;12.90;98358.00;;;;5096007;28;20210;-74
2021/12/30 04:30:52;;;;;;;1.37;1.27;;;13.50;95.80;12.70;98353.00;;;;5095859;28;20221;-74
2021/12/30 04:33:19;;;;;;;0.60;0.60;;;13.40;96.80;12.60;98360.00;;;;5095781;28;20223;-74
2021/12/30 04:35:46;;;;;;;0.40;0.40;;;13.30;97.50;12.60;98365.00;;;;5095889;28;20233;-75
2021/12/30 04:38:13;;;;;;;0.93;0.93;;;13.20;97.80;12.80;98362.00;;;;5095794;28;20249;-75
2021/12/30 04:40:40;;;;;;;0.50;0.50;;;13.30;98.70;12.60;98366.00;;;;5095689;28;20206;-74
2021/12/30 04:43:10;;;;;;;0.50;0.50;;;13.30;98.30;12.50;98378.00;;;;5097915;28;20245;-74
2021/12/30 04:45:37;;;;;;;0.60;0.60;;;13.20;99.50;12.40;98376.00;;;;5099520;28;20196;-74
2021/12/30 04:48:06;;;;;;;0.60;0.60;;;13.10;99.90;12.50;98383.00;;;;5099326;28;20492;-74
2021/12/30 04:50:35;;;;;;;0.50;0.50;;;13.10;99.90;12.30;98384.00;;;;5116323;28;20637;-74
2021/12/30 04:53:01;;;;;;;0.50;0.50;;;13.00;99.90;12.20;98382.00;;;;5099185;28;20309;-74
2021/12/30 04:55:31;;;;;;;1.80;0.70;;;12.90;99.90;12.20;98384.00;;;;5099319;28;20648;-74
2021/12/30 04:57:57;;;;;;;0.50;0.50;;;12.90;99.90;12.20;98384.00;;;;5099047;28;20240;-74
2021/12/30 05:00:24;;;;;;;0.50;0.50;;;12.90;99.90;12.20;98388.00;;;;5099185;28;20220;-74
2021/12/30 05:03:07;;;;;;;0.53;0.53;;;12.90;99.90;12.20;98392.00;;;;5099126;28;20289;-74
2021/12/30 05:05:37;;;;;;;0.50;0.50;;;12.80;99.90;12.30;98396.00;;;;5099119;28;20208;-74
2021/12/30 05:08:04;;;;;;;0.53;0.53;;;12.90;99.90;12.20;98393.00;;;;5099111;28;20209;-74
2021/12/30 05:10:35;;;;;;;0.40;0.40;;;12.80;99.90;12.20;98394.00;;;;5099147;28;20213;-74
2021/12/30 05:13:03;;;;;;;0.50;0.50;;;12.90;99.90;12.20;98390.00;;;;5098791;28;20301;-74
2021/12/30 05:15:30;;;;;;;0.50;0.50;;;12.80;99.90;12.20;98400.00;;;;5098823;28;20341;-74
2021/12/30 05:17:56;;;;;;;0.60;0.60;;;12.80;99.90;12.10;98396.00;;;;5098808;28;20293;-74
2021/12/30 05:20:23;;;;;;;0.50;0.50;;;12.80;99.90;12.20;98400.00;;;;5098736;28;20230;-74
2021/12/30 05:22:50;;;;;;;0.50;0.50;;;12.80;99.90;12.10;98404.00;;;;5098854;28;20258;-74
2021/12/30 05:25:18;;;;;;;0.70;0.70;;;12.70;99.90;12.20;98409.00;;;;5098835;28;20242;-74
2021/12/30 05:27:49;;;;;;;0.60;0.60;;;12.80;99.90;12.10;98409.00;;;;5098744;28;20206;-74
2021/12/30 05:30:18;;;;;;;0.50;0.50;;;12.80;99.90;12.00;98405.00;;;;5098733;28;20193;-74
2021/12/30 05:32:45;;;;;;;0.70;0.70;;;12.70;99.90;12.00;98407.00;;;;5098495;28;20217;-74
2021/12/30 05:35:13;;;;;;;0.50;0.50;;;12.70;99.90;12.00;98395.00;;;;5098742;28;20198;-74
2021/12/30 05:37:41;;;;;;;0.50;0.50;;;12.70;99.90;11.90;98385.00;;;;5098537;28;20272;-74
2021/12/30 05:40:12;;;;;;;0.40;0.40;;;12.60;99.90;11.90;98412.00;;;;5098633;28;20194;-74
2021/12/30 05:42:39;;;;;;;0.60;0.60;;;12.60;99.90;12.10;98417.00;;;;5098441;28;20229;-74
2021/12/30 05:45:09;;;;;;;0.50;0.50;;;12.60;99.90;12.00;98416.00;;;;5098280;28;20517;-74
2021/12/30 05:47:36;;;;;;;0.63;0.63;;;12.70;99.90;12.10;98404.00;;;;5098352;28;20220;-74
2021/12/30 05:50:08;;;;;;;0.50;0.50;;;12.70;99.90;12.00;98418.00;;;;5098193;28;20254;-73
2021/12/30 05:52:36;;;;;;;0.60;0.60;;;12.70;99.90;12.10;98435.00;;;;5098261;28;20606;-73
2021/12/30 05:55:04;;;;;;;0.60;0.60;;;12.70;99.90;12.10;98423.00;;;;5096974;28;20643;-74
2021/12/30 05:57:30;;;;;;;0.60;0.60;;;12.70;99.90;12.00;98423.00;;;;5098067;28;20218;-74
2021/12/30 05:59:59;;;;;;;0.50;0.50;;;12.70;99.90;12.00;98438.00;;;;5098032;28;20308;-74
2021/12/30 06:02:26;;;;;;;0.50;0.50;;;12.70;99.90;12.00;98432.00;;;;5098752;28;20208;-74
2021/12/30 06:04:52;;;;;;;0.50;0.50;;;12.70;99.90;12.00;98428.00;;;;5098176;28;20512;-74
2021/12/30 06:07:19;;;;;;;0.67;0.67;;;12.70;99.90;12.00;98429.00;;;;5098338;28;20638;-74
2021/12/30 06:09:46;;;;;;;0.60;0.60;;;12.70;99.90;12.00;98440.00;;;;5098215;28;20208;-74
2021/12/30 06:12:15;;;;;;;0.70;0.70;;;12.70;99.90;11.90;98432.00;;;;5097793;28;20256;-74
2021/12/30 06:14:41;;;;;;;0.40;0.40;;;12.60;99.90;11.80;98437.00;;;;5097883;28;20204;-74
2021/12/30 06:17:10;;;;;;;0.60;0.60;;;12.60;99.90;11.90;98437.00;;;;5097884;28;20352;-75
2021/12/30 06:19:38;;;;;;;0.50;0.50;;;12.60;99.90;11.90;98437.00;;;;5097774;28;20198;-74
2021/12/30 06:22:05;;;;;;;0.53;0.53;;;12.60;99.90;12.00;98442.00;;;;5097716;28;20253;-74
2021/12/30 06:24:32;;;;;;;0.60;0.60;;;12.60;99.90;12.00;98443.00;;;;5097786;28;20194;-74
2021/12/30 06:26:59;;;;;;;0.50;0.50;;;12.70;99.90;12.10;98369.00;;;;5097766;28;20194;-74
2021/12/30 06:29:25;;;;;;;0.50;0.50;;;12.70;99.90;12.10;98451.00;;;;5097823;28;20339;-74
2021/12/30 06:31:54;;;;;;;0.50;0.50;;;12.70;99.90;12.20;98451.00;;;;5097621;28;20646;-74
2021/12/30 06:34:21;;;;;;;0.50;0.50;;;12.80;99.90;12.10;98459.00;;;;5097649;28;20197;-74
2021/12/30 06:36:48;;;;;;;1.03;1.03;;;12.80;99.90;12.10;98460.00;;;;5097618;28;20205;-74
2021/12/30 06:39:15;;;;;;;1.00;0.87;;;12.70;99.90;12.10;98465.00;;;;5097394;28;20316;-74
2021/12/30 06:41:44;;;;;;;0.50;0.50;;;12.70;99.90;12.10;98465.00;;;;5097485;28;20213;-74
2021/12/30 06:44:10;;;;;;;0.57;0.57;;;12.80;99.90;12.00;98442.00;;;;5097471;28;20323;-74
2021/12/30 06:46:37;;;;;;;0.50;0.50;;;12.70;99.90;12.10;98462.00;;;;5097621;28;20232;-74
2021/12/30 06:49:09;;;;;;;0.40;0.40;;;12.70;99.90;12.20;98472.00;;;;5097458;28;20295;-74
2021/12/30 06:51:35;;;;;;;0.63;0.63;;;12.80;99.90;12.20;98474.00;;;;5097404;28;20196;-74
2021/12/30 06:54:04;;;;;;;0.50;0.50;;;12.90;99.90;12.20;98476.00;;;;5097417;28;20258;-74
2021/12/30 06:56:34;;;;;;;0.50;0.50;;;12.90;99.90;12.20;98475.00;;;;5097252;28;20249;-74
2021/12/30 06:59:03;;;;;;;0.60;0.60;;;12.80;99.90;12.30;98467.00;;;;5097270;28;20510;-74
2021/12/30 07:01:30;;;;;;;0.50;0.50;;;12.90;99.90;12.30;98476.00;;;;5097207;28;20716;-74
2021/12/30 07:03:57;;;;;;;0.60;0.60;;;12.90;99.90;12.20;98481.00;;;;5097459;28;20322;-74
2021/12/30 07:06:26;;;;;;;0.47;0.47;;;12.90;99.90;12.40;98482.00;;;;5096949;28;20197;-73
2021/12/30 07:08:52;;;;;;;0.77;0.77;;;12.90;99.90;12.40;98483.00;;;;5097289;28;20206;-73
2021/12/30 07:11:19;;;;;;;0.50;0.50;;;13.00;99.90;12.30;98492.00;;;;5097055;28;20739;-74
2021/12/30 07:13:46;;;;;;;0.47;0.47;;;13.00;99.90;12.30;98503.00;;;;5096929;28;20239;-74
2021/12/30 07:16:13;;;;;;;0.60;0.60;;;12.90;99.90;12.30;98499.00;;;;5097170;28;20209;-74
2021/12/30 07:18:39;;;;;;;0.50;0.50;;;13.00;99.90;12.40;98510.00;;;;5096973;28;20222;-74
2021/12/30 07:21:08;;;;;;;0.70;0.70;;;13.00;99.90;12.20;98518.00;;;;5096704;28;20205;-74
2021/12/30 07:23:35;;;;;;;0.53;0.53;;;12.90;99.90;12.30;98520.00;;;;5096867;28;20599;-74
2021/12/30 07:26:02;;;;;;;0.50;0.50;;;12.90;99.90;12.30;98517.00;;;;5096978;28;20297;-74
2021/12/30 07:28:29;;;;;;;0.50;0.50;;;12.90;99.90;12.30;98513.00;;;;5096971;28;20288;-73
2021/12/30 07:30:56;;;;;;;0.50;0.50;;;12.90;99.90;12.30;98529.00;;;;5096852;28;20309;-74
2021/12/30 07:33:22;;;;;;;0.50;0.50;;;12.90;99.90;12.30;98529.00;;;;5096788;28;20198;-74
2021/12/30 07:35:49;;;;;;;0.60;0.60;;;13.00;99.90;12.50;98525.00;;;;5096664;28;20233;-74
2021/12/30 07:38:18;;;;;;;0.50;0.50;;;13.10;99.90;12.30;98534.00;;;;5096616;28;20222;-74
2021/12/30 07:40:46;;;;;;;0.60;0.60;;;13.00;99.90;12.30;98522.00;;;;5096528;28;20229;-74
2021/12/30 07:43:13;;;;;;;0.50;0.50;;;13.00;99.90;12.30;98534.00;;;;5096653;28;20206;-74
2021/12/30 07:45:40;;;;;;;0.60;0.60;;;13.00;99.90;12.40;98539.00;;;;5096543;28;20193;-74
2021/12/30 07:48:07;;;;;;;0.40;0.40;;;13.00;99.90;12.50;98551.00;;;;5096718;28;20225;-74
2021/12/30 07:50:34;;;;;;;0.50;0.50;;;13.00;99.90;12.50;98541.00;;;;5096402;28;20248;-74
2021/12/30 07:53:03;;;;;;;0.50;0.50;;;13.10;99.90;12.60;98546.00;;;;5096395;28;20221;-73
2021/12/30 07:55:29;;;;;;;0.50;0.50;;;13.10;99.90;12.40;98552.00;;;;5113328;28;20297;-73
2021/12/30 07:57:58;;;;;;;0.50;0.50;;;13.10;99.90;12.50;98546.00;;;;5096095;28;20229;-73
2021/12/30 08:00:25;;;;;;;0.50;0.50;;;13.10;99.90;12.40;98545.00;;;;5096357;28;20206;-73
2021/12/30 08:02:55;;;;;;;0.50;0.50;;;13.10;99.90;12.50;98510.00;;;;5113153;28;20226;-72
2021/12/30 08:05:22;;;;;;;0.50;0.50;;;13.10;99.90;12.50;98518.00;;;;5096163;28;20292;-74
2021/12/30 08:07:52;;;;;;;0.57;0.57;;;13.10;99.90;12.40;98550.00;;;;5096227;28;20226;-74
2021/12/30 08:10:19;;;;;;;0.50;0.50;;;13.10;99.90;12.50;98536.00;;;;5096237;28;20194;-73
2021/12/30 08:12:47;;;;;;;0.50;0.50;;;13.10;99.90;12.40;98542.00;;;;5113235;28;20233;-73
2021/12/30 08:15:17;;;;;;;0.70;0.70;;;13.10;99.90;12.50;98550.00;;;;5096007;28;20298;-73
2021/12/30 08:17:46;;;;;;;0.60;0.60;;;13.10;99.90;12.80;98547.00;;;;5095259;28;20661;-74
2021/12/30 08:20:17;;;;;;;0.50;0.50;;;13.20;99.90;12.70;98549.00;;;;5096082;28;20541;-74
2021/12/30 08:22:44;;;;;;;0.60;0.60;;;13.20;99.90;12.60;98548.00;;;;5096037;28;20265;-74
2021/12/30 08:25:13;;;;;;;0.40;0.40;;;13.20;99.90;12.60;98553.00;;;;5095431;28;20288;-74
2021/12/30 08:27:44;;;;;;;0.73;0.73;;;13.20;99.90;12.60;98559.00;;;;5095974;28;20205;-74
2021/12/30 08:30:15;;;;;;;0.50;0.50;;;13.20;99.90;12.70;98554.00;;;;5095900;28;20597;-74
2021/12/30 08:32:42;;;;;;;0.50;0.50;;;13.30;99.90;12.70;98556.00;;;;5095982;28;20532;-74
2021/12/30 08:35:11;;;;;;;0.50;0.50;;;13.30;99.90;12.70;98557.00;;;;5095892;28;20193;-74
2021/12/30 08:37:41;;;;;;;0.50;0.50;;;13.30;99.90;12.80;98525.00;;;;5095728;28;20221;-74
2021/12/30 08:40:12;;;;;;;1.20;0.60;;;13.30;99.90;12.80;98559.00;;;;5096024;28;20659;-73
2021/12/30 08:42:39;;;;;;;0.77;0.77;;;13.40;99.90;12.70;98561.00;;;;5095703;28;20253;-74
2021/12/30 08:45:08;;;;;;;0.70;0.70;;;13.30;99.90;12.70;98557.00;;;;5095828;28;20301;-74
2021/12/30 08:47:36;;;;;;;0.53;0.53;;;13.30;99.90;12.60;98540.00;;;;5095696;28;20344;-74
2021/12/30 08:50:07;;;;;;;0.60;0.60;;;13.20;99.90;12.50;98575.00;;;;5095851;28;20710;-74
2021/12/30 08:52:37;;;;;;;0.40;0.40;;;13.20;99.90;12.60;98561.00;;;;5095756;28;20251;-74
2021/12/30 08:55:06;;;;;;;0.63;0.63;;;13.20;99.90;12.70;98560.00;;;;5095789;28;20218;-74
2021/12/30 08:57:38;;;;;;;0.50;0.50;;;13.30;99.90;12.80;98569.00;;;;5112484;28;20349;-74
2021/12/30 09:00:11;;;;;;;0.60;0.60;;;13.30;99.90;12.90;98567.00;;;;5095569;28;20226;-74
2021/12/30 09:02:38;;;;;;;0.50;0.50;;;13.40;99.90;13.00;98566.00;;;;5095369;28;20241;-74
2021/12/30 09:05:08;;;;;;;0.50;0.50;;;13.50;99.90;13.00;98567.00;;;;5095479;28;20639;-74
2021/12/30 09:07:35;;;;;;;0.50;0.50;;;13.60;99.70;13.30;98557.00;;;;5095547;28;20750;-74
2021/12/30 09:10:03;;;;;;;0.60;0.60;;;13.70;99.30;13.40;98568.00;;;;5095320;28;20425;-74
2021/12/30 09:12:30;;;;;;;0.50;0.50;;;;;13.40;98561.00;;;;5095456;28;20213;-74
2021/12/30 09:14:57;;;;;;;0.40;0.40;;;;;13.40;98550.00;;;;5095346;28;20194;-74
2021/12/30 09:17:24;;;;;;;0.80;0.80;;;;;13.50;98546.00;;;;5095168;28;20537;-74
2021/12/30 09:19:51;;;;;;;0.50;0.50;;;;;13.70;98561.00;;;;5095138;28;20649;-74
2021/12/30 09:22:18;;;;;;;0.60;0.60;;;;;13.70;98551.00;;;;5095229;28;20252;-74
2021/12/30 09:24:45;;;;;;;0.50;0.50;;;;;13.70;98564.00;;;;5095123;28;20232;-74
2021/12/30 09:27:12;;;;;;;0.40;0.40;;;;;13.80;98571.00;;;;5094997;28;20729;-74
2021/12/30 09:29:39;;;;;;;0.33;0.33;;;;;14.00;98577.00;;;;5097941;28;20202;-74
2021/12/30 09:32:06;;;;;;;0.40;0.40;;;;;14.00;98578.00;;;;5098519;28;20207;-74
2021/12/30 09:34:33;;;;;;;0.73;0.73;;;;;14.00;98576.00;;;;5098435;28;20190;-74
2021/12/30 09:37:00;;;;;;;0.50;0.50;;;;;14.20;98575.00;;;;5098581;28;20204;-74
2021/12/30 09:39:29;;;;;;;0.40;0.40;;;;;14.10;98592.00;;;;5098487;28;20217;-74
2021/12/30 09:41:56;;;;;;;0.50;0.50;;;;;14.00;98587.00;;;;5098584;28;20409;-73
2021/12/30 09:44:23;;;;;;;0.60;0.60;;;;;13.90;98602.00;;;;5098304;28;20249;-74
2021/12/30 09:46:50;;;;;;;0.50;0.50;;;;;13.80;98594.00;;;;5098321;28;20701;-74
2021/12/30 09:49:22;;;;;;;0.50;0.50;;;;;14.00;98593.00;;;;5098160;28;20372;-75
2021/12/30 09:51:50;;;;;;;0.50;0.50;;;;;14.30;98558.00;;;;5098321;28;20229;-74
2021/12/30 09:54:17;;;;;;;0.50;0.50;;;;;14.20;98581.00;;;;5098387;28;20636;-74
2021/12/30 09:56:45;;;;;;;0.40;0.40;;;;;14.30;98584.00;;;;5098204;28;20270;-74
2021/12/30 09:59:13;;;;;;;0.50;0.50;;;;;14.40;98587.00;;;;5098103;28;20225;-74
2021/12/30 10:01:42;;;;;;;0.63;0.63;;;;;14.30;98590.00;;;;5098126;28;20229;-74
2021/12/30 10:04:10;;;;;;;0.40;0.40;;;;;14.40;98591.00;;;;5098229;28;20205;-74
2021/12/30 10:06:42;;;;;;;0.50;0.50;;;;;14.30;98596.00;;;;5097852;28;20742;-74
2021/12/30 10:09:12;;;;;;;0.50;0.50;;;;;14.40;98598.00;;;;5098004;28;20641;-74
2021/12/30 10:11:47;;;;;;;0.50;0.50;;;;;14.40;98605.00;;;;5097729;28;20282;-74
2021/12/30 10:14:25;;;;;;;0.60;0.60;;;;;14.60;98602.00;;;;5098034;28;20251;-75
2021/12/30 10:17:12;;;;;;;0.60;0.60;;;;;14.40;98609.00;;;;5097946;28;20529;-74
2021/12/30 10:19:39;;;;;;;0.40;0.40;;;;;14.60;98608.00;;;;5098008;28;20254;-74
2021/12/30 10:22:09;;;;;;;0.93;0.93;;;;;14.60;98612.00;;;;5097961;28;20281;-74
2021/12/30 10:24:36;;;;;;;0.43;0.43;;;;;14.80;98614.00;;;;5097735;28;20665;-74
2021/12/30 10:27:03;;;;;;;0.40;0.40;;;;;14.70;98613.00;;;;5098040;28;20214;-74
2021/12/30 10:29:40;;;;;;;0.50;0.50;;;;;14.70;98550.00;;;;5097533;28;20294;-74
2021/12/30 10:32:15;;;;;;;0.73;0.73;;;;;14.90;98623.00;;;;5097793;28;20223;-74
2021/12/30 10:35:06;;;;;;;0.70;0.70;;;;;15.00;98620.00;;;;5097526;28;20261;-74
2021/12/30 10:37:37;;;;;;;0.50;0.50;;;;;15.20;98621.00;;;;5097613;28;20335;-74
2021/12/30 10:40:05;;;;;;;0.60;0.60;;;;;15.20;98625.00;;;;5096882;28;20222;-75
2021/12/30 10:42:34;;;;;;;0.40;0.40;;;15.80;88.70;15.20;98631.00;;;;5097620;28;20209;-74
2021/12/30 10:45:05;;;;;;;0.40;0.40;;;15.70;89.30;15.30;98634.00;;;;5097553;28;20294;-75
2021/12/30 10:47:49;;;;;;;0.50;0.50;;;15.80;88.80;15.30;98630.00;;;;5097358;28;20206;-75
2021/12/30 10:50:23;;;;;;;0.43;0.43;;;15.90;87.40;15.30;98627.00;;;;5097363;28;20202;-74
2021/12/30 10:52:53;;;;;;;0.43;0.43;;;15.90;88.50;15.30;98619.00;;;;5097292;28;20655;-74
2021/12/30 10:55:21;;;;;;;0.40;0.40;;;15.80;86.20;15.60;98619.00;;;;5097365;28;20288;-75
2021/12/30 10:57:47;;;;;;;0.57;0.57;;;16.00;85.70;15.60;98612.00;;;;5097049;28;20531;-74
2021/12/30 11:00:26;;;;;;;0.57;0.57;;;16.10;84.20;15.60;98610.00;;;;5114124;28;20339;-74
2021/12/30 11:02:54;;;;;;;0.50;0.50;;;16.10;84.90;15.70;98616.00;;;;5097000;28;20226;-74
2021/12/30 11:05:20;;;;;;;0.60;0.60;;;16.10;83.80;15.90;98623.00;;;;5097023;28;20283;-74
2021/12/30 11:07:51;;;;;;;0.40;0.40;;;16.30;82.60;15.90;98621.00;;;;5096768;28;20208;-74
2021/12/30 11:10:30;;;;;;;0.40;0.40;;;16.30;82.50;16.00;98622.00;;;;5096906;28;20305;-74
2021/12/30 11:13:09;;;;;;;0.60;0.60;;;16.40;81.40;15.70;98620.00;;;;5097001;28;20202;-74